createdAt,value
2023-05-11T00:00:08.349Z,29.68
2023-05-11T00:02:38.997Z,29.99
2023-05-11T00:05:08.420Z,29.67
2023-05-11T00:07:37.593Z,29.44
2023-05-11T00:10:07.109Z,30.07
2023-05-11T00:12:35.994Z,29.82
2023-05-11T00:15:05.738Z,29.57
2023-05-11T00:17:35.289Z,29.17
2023-05-11T00:20:04.987Z,29.00
2023-05-11T00:22:35.172Z,29.43
2023-05-11T00:25:05.140Z,29.15
2023-05-11T00:27:33.962Z,29.31
2023-05-11T00:30:02.924Z,29.33
2023-05-11T00:32:34.921Z,29.02
2023-05-11T00:35:05.073Z,29.13
2023-05-11T00:37:33.978Z,28.98
2023-05-11T00:40:03.617Z,28.68
2023-05-11T00:42:33.115Z,28.35
2023-05-11T00:45:02.555Z,28.43
2023-05-11T00:47:36.138Z,27.66
2023-05-11T00:50:06.520Z,27.97
2023-05-11T00:52:35.721Z,27.67
2023-05-11T00:55:04.993Z,27.98
2023-05-11T00:57:36.632Z,27.41
2023-05-11T01:00:07.869Z,27.11
2023-05-11T01:02:39.116Z,26.95
2023-05-11T01:05:09.491Z,26.81
2023-05-11T01:07:49.868Z,26.45
2023-05-11T01:10:31.857Z,26.60
2023-05-11T01:13:15.039Z,26.44
2023-05-11T01:15:51.117Z,26.25
2023-05-11T01:18:27.832Z,26.11
2023-05-11T01:21:01.880Z,25.71
2023-05-11T01:23:40.715Z,25.89
2023-05-11T01:26:28.362Z,25.82
2023-05-11T01:29:14.564Z,25.34
2023-05-11T01:31:48.742Z,24.54
2023-05-11T01:34:20.235Z,24.02
2023-05-11T01:37:17.116Z,23.80
2023-05-11T01:39:55.880Z,23.62
2023-05-11T01:42:33.714Z,22.97
2023-05-11T01:45:04.913Z,22.84
2023-05-11T01:47:35.649Z,22.26
2023-05-11T01:50:06.933Z,21.07
2023-05-11T01:52:38.140Z,21.27
2023-05-11T01:55:08.192Z,20.86
2023-05-11T01:57:39.033Z,20.27
2023-05-11T02:00:10.762Z,19.56
2023-05-11T02:02:48.055Z,19.32
2023-05-11T02:05:22.058Z,19.16
2023-05-11T02:07:53.498Z,18.42
2023-05-11T02:10:26.171Z,18.42
2023-05-11T02:12:57.267Z,17.82
2023-05-11T02:15:29.468Z,17.55
2023-05-11T02:17:59.820Z,17.49
2023-05-11T02:20:28.850Z,16.68
2023-05-11T02:22:59.585Z,15.95
2023-05-11T02:25:30.477Z,15.69
2023-05-11T02:27:59.372Z,15.85
2023-05-11T02:30:32.526Z,15.65
2023-05-11T02:33:09.260Z,15.29
2023-05-11T02:35:43.561Z,14.84
2023-05-11T02:38:15.580Z,14.53
2023-05-11T02:40:49.968Z,14.69
2023-05-11T02:43:25.236Z,13.39
2023-05-11T02:46:05.868Z,13.58
2023-05-11T02:48:46.127Z,13.19
2023-05-11T02:51:20.894Z,12.65
2023-05-11T02:53:55.677Z,13.13
2023-05-11T02:56:25.720Z,13.03
2023-05-11T02:58:56.616Z,12.93
2023-05-11T03:01:30.903Z,12.57
2023-05-11T03:04:00.631Z,12.71
2023-05-11T03:06:32.577Z,12.63
2023-05-11T03:09:03.024Z,12.53
2023-05-11T03:11:34.838Z,11.76
2023-05-11T03:14:04.188Z,11.47
2023-05-11T03:16:34.370Z,11.82
2023-05-11T03:19:04.013Z,11.71
2023-05-11T03:21:35.079Z,11.33
2023-05-11T03:24:08.655Z,11.35
2023-05-11T03:26:38.544Z,11.53
2023-05-11T03:29:09.814Z,11.13
2023-05-11T03:31:39.235Z,11.05
2023-05-11T03:34:08.127Z,11.13
2023-05-11T03:36:42.354Z,10.98
2023-05-11T03:39:13.330Z,10.87
2023-05-11T03:41:45.390Z,10.53
2023-05-11T03:44:15.730Z,10.33
2023-05-11T03:46:46.625Z,10.34
2023-05-11T03:49:17.686Z,10.27
2023-05-11T03:51:47.072Z,10.05
2023-05-11T03:54:16.458Z,9.88
2023-05-11T03:56:45.969Z,9.97
2023-05-11T03:59:18.114Z,9.59
2023-05-11T04:01:48.115Z,9.69
2023-05-11T04:04:17.362Z,9.67
2023-05-11T04:06:46.205Z,9.88
2023-05-11T04:09:18.965Z,9.80
2023-05-11T04:11:48.055Z,9.65
2023-05-11T04:14:18.196Z,9.31
2023-05-11T04:16:47.097Z,9.37
2023-05-11T04:19:17.171Z,9.20
2023-05-11T04:21:47.349Z,9.29
2023-05-11T04:24:16.377Z,8.93
2023-05-11T04:26:45.348Z,8.85
2023-05-11T04:29:15.224Z,8.84
2023-05-11T04:31:44.271Z,8.91
2023-05-11T04:34:13.164Z,8.62
2023-05-11T04:36:42.655Z,8.43
2023-05-11T04:39:12.196Z,8.41
2023-05-11T04:41:41.189Z,8.13
2023-05-11T04:44:11.589Z,8.04
2023-05-11T04:46:40.613Z,8.33
2023-05-11T04:49:09.610Z,8.06
2023-05-11T04:51:40.539Z,8.20
2023-05-11T04:54:11.106Z,8.41
2023-05-11T04:56:41.433Z,8.59
2023-05-11T04:59:11.533Z,8.26
2023-05-11T05:01:41.374Z,8.20
2023-05-11T05:04:10.857Z,7.79
2023-05-11T05:06:40.533Z,7.73
2023-05-11T05:09:09.435Z,7.65
2023-05-11T05:11:38.613Z,7.60
2023-05-11T05:14:08.096Z,8.13
2023-05-11T05:16:37.029Z,8.00
2023-05-11T05:19:06.024Z,8.12
2023-05-11T05:21:36.346Z,7.91
2023-05-11T05:24:06.771Z,7.72
2023-05-11T05:26:36.120Z,7.78
2023-05-11T05:29:10.293Z,7.62
2023-05-11T05:31:40.032Z,7.26
2023-05-11T05:34:08.864Z,7.63
2023-05-11T05:36:39.806Z,7.46
2023-05-11T05:39:12.513Z,7.43
2023-05-11T05:41:43.136Z,7.48
2023-05-11T05:44:12.845Z,7.08
2023-05-11T05:46:41.820Z,7.55
2023-05-11T05:49:10.860Z,7.59
2023-05-11T05:51:40.120Z,7.58
2023-05-11T05:54:09.545Z,6.99
2023-05-11T05:56:38.445Z,6.94
2023-05-11T05:59:09.482Z,6.97
2023-05-11T06:01:47.069Z,6.93
2023-05-11T06:04:17.898Z,7.17
2023-05-11T06:06:47.092Z,6.92
2023-05-11T06:09:16.020Z,7.06
2023-05-11T06:11:46.371Z,7.34
2023-05-11T06:14:15.206Z,7.05
2023-05-11T06:16:44.955Z,7.70
2023-05-11T06:19:14.233Z,7.43
2023-05-11T06:21:45.730Z,7.13
2023-05-11T06:24:15.663Z,7.22
2023-05-11T06:26:46.489Z,7.31
2023-05-11T06:29:17.106Z,7.06
2023-05-11T06:31:47.304Z,7.35
2023-05-11T06:34:16.570Z,7.35
2023-05-11T06:36:45.482Z,7.38
2023-05-11T06:39:14.436Z,6.97
2023-05-11T06:41:43.438Z,7.00
2023-05-11T06:44:13.710Z,7.40
2023-05-11T06:46:45.999Z,7.04
2023-05-11T06:49:15.057Z,7.28
2023-05-11T06:51:46.407Z,6.93
2023-05-11T06:54:15.853Z,7.21
2023-05-11T06:56:45.055Z,6.68
2023-05-11T06:59:14.099Z,7.09
2023-05-11T07:01:44.476Z,7.05
2023-05-11T07:04:13.727Z,6.95
2023-05-11T07:06:42.727Z,6.48
2023-05-11T07:09:11.775Z,6.93
2023-05-11T07:11:41.516Z,6.83
2023-05-11T07:14:10.704Z,7.15
2023-05-11T07:16:39.759Z,7.11
2023-05-11T07:19:11.848Z,7.05
2023-05-11T07:21:41.153Z,7.37
2023-05-11T07:24:09.939Z,7.07
2023-05-11T07:26:39.070Z,7.11
2023-05-11T07:29:08.091Z,7.07
2023-05-11T07:31:36.979Z,7.18
2023-05-11T07:34:05.949Z,7.16
2023-05-11T07:36:34.884Z,7.14
2023-05-11T07:39:03.841Z,7.27
2023-05-11T07:41:32.655Z,7.21
2023-05-11T07:44:02.351Z,7.18
2023-05-11T07:46:31.301Z,6.99
2023-05-11T07:49:11.349Z,6.93
2023-05-11T07:51:44.803Z,7.24
2023-05-11T07:54:13.769Z,7.74
2023-05-11T07:56:42.846Z,7.78
2023-05-11T07:59:11.753Z,8.06
2023-05-11T08:01:41.611Z,8.96
2023-05-11T08:04:10.908Z,9.66
2023-05-11T08:06:40.129Z,10.09
2023-05-11T08:09:08.952Z,10.35
2023-05-11T08:11:37.700Z,10.69
2023-05-11T08:14:06.463Z,11.08
2023-05-11T08:16:37.756Z,11.38
2023-05-11T08:19:06.773Z,11.20
2023-05-11T08:21:36.420Z,11.31
2023-05-11T08:24:05.764Z,11.75
2023-05-11T08:26:34.768Z,11.84
2023-05-11T08:29:04.938Z,12.63
2023-05-11T08:31:33.694Z,12.61
2023-05-11T08:34:03.842Z,12.73
2023-05-11T08:36:32.976Z,12.34
2023-05-11T08:39:01.873Z,12.86
2023-05-11T08:41:30.989Z,13.23
2023-05-11T08:44:01.468Z,12.90
2023-05-11T08:46:31.722Z,13.43
2023-05-11T08:49:00.698Z,13.26
2023-05-11T08:51:29.767Z,13.65
2023-05-11T08:54:00.359Z,13.79
2023-05-11T08:56:30.745Z,13.75
2023-05-11T08:58:59.812Z,13.77
2023-05-11T09:01:30.650Z,14.27
2023-05-11T09:04:00.132Z,14.46
2023-05-11T09:06:29.625Z,14.62
2023-05-11T09:08:59.059Z,15.19
2023-05-11T09:11:30.070Z,14.92
2023-05-11T09:13:59.703Z,15.13
2023-05-11T09:16:36.762Z,15.31
2023-05-11T09:19:07.075Z,15.72
2023-05-11T09:21:36.127Z,15.52
2023-05-11T09:24:05.346Z,15.38
2023-05-11T09:26:34.796Z,15.71
2023-05-11T09:29:04.756Z,16.15
2023-05-11T09:31:39.867Z,15.89
2023-05-11T09:34:20.243Z,15.83
2023-05-11T09:36:52.473Z,16.14
2023-05-11T09:39:44.126Z,16.23
2023-05-11T09:42:26.117Z,16.19
2023-05-11T09:44:55.152Z,16.16
2023-05-11T09:47:24.091Z,16.53
2023-05-11T09:49:53.022Z,16.48
2023-05-11T09:52:21.864Z,16.51
2023-05-11T09:54:54.295Z,16.32
2023-05-11T09:57:28.713Z,16.58
2023-05-11T10:00:00.378Z,16.67
2023-05-11T10:02:33.894Z,16.74
2023-05-11T10:05:13.023Z,16.75
2023-05-11T10:07:42.254Z,16.78
2023-05-11T10:10:14.293Z,16.68
2023-05-11T10:12:43.450Z,16.72
2023-05-11T10:15:13.090Z,16.90
2023-05-11T10:17:45.247Z,17.04
2023-05-11T10:20:15.006Z,17.02
2023-05-11T10:22:44.096Z,17.23
2023-05-11T10:25:13.268Z,17.12
2023-05-11T10:27:42.798Z,17.28
2023-05-11T10:30:13.756Z,17.01
2023-05-11T10:32:43.078Z,17.24
2023-05-11T10:35:12.298Z,17.22
2023-05-11T10:37:43.841Z,17.51
2023-05-11T10:40:13.276Z,17.36
2023-05-11T10:43:00.597Z,17.53
2023-05-11T10:45:47.751Z,17.21
2023-05-11T10:48:19.587Z,17.35
2023-05-11T10:51:25.752Z,17.00
2023-05-11T10:54:21.895Z,17.13
2023-05-11T10:57:12.277Z,17.45
2023-05-11T10:59:54.720Z,17.37
2023-05-11T11:02:24.918Z,17.47
2023-05-11T11:04:54.401Z,17.40
2023-05-11T11:07:23.729Z,17.27
2023-05-11T11:10:01.752Z,17.56
2023-05-11T11:12:31.731Z,17.63
2023-05-11T11:15:06.840Z,17.64
2023-05-11T11:17:38.317Z,17.66
2023-05-11T11:20:08.961Z,17.79
2023-05-11T11:22:42.214Z,17.59
2023-05-11T11:25:13.013Z,17.63
2023-05-11T11:27:41.964Z,17.73
2023-05-11T11:30:20.531Z,17.62
2023-05-11T11:32:57.337Z,17.78
2023-05-11T11:35:45.389Z,17.99
2023-05-11T11:38:16.727Z,17.86
2023-05-11T11:40:55.646Z,17.89
2023-05-11T11:43:45.253Z,18.32
2023-05-11T11:46:27.775Z,18.22
2023-05-11T11:49:10.658Z,18.29
2023-05-11T11:51:41.221Z,17.84
2023-05-11T11:54:10.182Z,17.99
2023-05-11T11:56:39.896Z,17.79
2023-05-11T11:59:12.230Z,18.24
2023-05-11T12:01:44.622Z,17.91
2023-05-11T12:04:34.856Z,18.27
2023-05-11T12:07:08.590Z,17.81
2023-05-11T12:09:38.973Z,17.76
2023-05-11T12:12:09.761Z,18.21
2023-05-11T12:14:39.978Z,18.05
2023-05-11T12:17:14.163Z,18.19
2023-05-11T12:19:46.309Z,17.97
2023-05-11T12:22:22.251Z,18.03
2023-05-11T12:24:51.432Z,17.86
2023-05-11T12:27:20.441Z,17.99
2023-05-11T12:29:51.217Z,18.54
2023-05-11T12:32:28.563Z,18.42
2023-05-11T12:35:02.653Z,19.22
2023-05-11T12:37:36.772Z,19.08
2023-05-11T12:40:06.298Z,18.96
2023-05-11T12:42:35.396Z,19.74
2023-05-11T12:45:06.292Z,19.86
2023-05-11T12:47:36.685Z,19.60
2023-05-11T12:50:06.841Z,19.60
2023-05-11T12:52:35.686Z,19.29
2023-05-11T12:55:04.684Z,19.48
2023-05-11T12:57:34.227Z,19.75
2023-05-11T13:00:16.276Z,19.52
2023-05-11T13:02:46.712Z,19.37
2023-05-11T13:05:16.993Z,19.55
2023-05-11T13:07:47.224Z,19.81
2023-05-11T13:10:16.685Z,19.50
2023-05-11T13:12:52.678Z,19.62
2023-05-11T13:15:24.019Z,18.93
2023-05-11T13:18:00.761Z,19.48
2023-05-11T13:20:34.555Z,19.98
2023-05-11T13:23:07.708Z,19.24
2023-05-11T13:25:53.961Z,19.52
2023-05-11T13:28:25.080Z,19.69
2023-05-11T13:31:02.425Z,19.51
2023-05-11T13:33:31.463Z,19.19
2023-05-11T13:36:00.157Z,19.78
2023-05-11T13:38:29.148Z,18.90
2023-05-11T13:40:58.405Z,19.16
2023-05-11T13:43:27.298Z,19.60
2023-05-11T13:45:56.253Z,19.92
2023-05-11T13:48:25.260Z,19.83
2023-05-11T13:50:54.021Z,19.52
2023-05-11T13:53:23.005Z,19.38
2023-05-11T13:55:52.792Z,19.16
2023-05-11T13:58:22.376Z,19.64
2023-05-11T14:01:06.515Z,19.27
2023-05-11T14:03:36.861Z,19.39
2023-05-11T14:06:06.095Z,19.21
2023-05-11T14:08:34.934Z,19.65
2023-05-11T14:11:03.779Z,19.82
2023-05-11T14:13:32.923Z,19.20
2023-05-11T14:16:02.144Z,19.20
2023-05-11T14:18:31.711Z,19.32
2023-05-11T14:21:01.299Z,19.01
2023-05-11T14:23:30.231Z,19.26
2023-05-11T14:25:59.320Z,19.12
2023-05-11T14:28:28.470Z,19.62
2023-05-11T14:30:57.878Z,19.42
2023-05-11T14:33:27.146Z,20.20
2023-05-11T14:35:56.090Z,20.20
2023-05-11T14:38:25.171Z,19.82
2023-05-11T14:40:54.753Z,19.64
2023-05-11T14:43:24.851Z,20.49
2023-05-11T14:45:54.055Z,19.77
2023-05-11T14:48:23.780Z,19.99
2023-05-11T14:50:52.719Z,20.09
2023-05-11T14:53:21.532Z,20.42
2023-05-11T14:55:50.422Z,20.16
2023-05-11T14:58:19.228Z,20.29
2023-05-11T15:00:49.021Z,20.71
2023-05-11T15:03:18.756Z,20.09
2023-05-11T15:05:47.651Z,20.18
2023-05-11T15:08:28.876Z,20.11
2023-05-11T15:10:59.309Z,20.15
2023-05-11T15:13:28.489Z,20.59
2023-05-11T15:15:58.425Z,20.63
2023-05-11T15:18:27.358Z,20.19
2023-05-11T15:20:57.416Z,21.05
2023-05-11T15:23:26.231Z,20.27
2023-05-11T15:25:55.185Z,20.67
2023-05-11T15:28:24.140Z,20.95
2023-05-11T15:30:53.143Z,21.20
2023-05-11T15:33:22.030Z,20.71
2023-05-11T15:35:51.932Z,20.56
2023-05-11T15:38:21.519Z,21.22
2023-05-11T15:40:50.351Z,21.09
2023-05-11T15:43:19.277Z,20.81
2023-05-11T15:45:48.278Z,21.07
2023-05-11T15:48:17.174Z,20.83
2023-05-11T15:50:46.488Z,21.21
2023-05-11T15:53:15.654Z,20.63
2023-05-11T15:55:51.371Z,20.69
2023-05-11T15:58:20.314Z,21.15
2023-05-11T16:00:50.260Z,20.63
2023-05-11T16:03:20.317Z,20.80
2023-05-11T16:05:49.659Z,21.13
2023-05-11T16:08:19.481Z,21.49
2023-05-11T16:10:48.417Z,21.31
2023-05-11T16:13:17.647Z,21.31
2023-05-11T16:15:47.693Z,21.70
2023-05-11T16:18:17.275Z,21.70
2023-05-11T16:20:47.067Z,21.69
2023-05-11T16:23:16.063Z,21.16
2023-05-11T16:25:45.077Z,21.37
2023-05-11T16:28:16.844Z,21.53
2023-05-11T16:30:46.002Z,21.60
2023-05-11T16:33:15.219Z,21.51
2023-05-11T16:35:44.245Z,22.17
2023-05-11T16:38:21.827Z,21.30
2023-05-11T16:40:51.310Z,22.26
2023-05-11T16:43:20.331Z,22.02
2023-05-11T16:45:51.006Z,21.78
2023-05-11T16:48:19.878Z,22.55
2023-05-11T16:50:48.821Z,22.82
2023-05-11T16:53:18.280Z,22.49
2023-05-11T16:55:47.486Z,22.36
2023-05-11T16:58:16.281Z,22.26
2023-05-11T17:00:45.778Z,22.29
2023-05-11T17:03:14.691Z,22.36
2023-05-11T17:05:44.565Z,22.98
2023-05-11T17:08:13.395Z,23.02
2023-05-11T17:10:42.310Z,23.05
2023-05-11T17:13:11.341Z,23.03
2023-05-11T17:15:40.259Z,22.60
2023-05-11T17:18:09.099Z,23.24
2023-05-11T17:20:38.125Z,22.82
2023-05-11T17:23:08.396Z,22.79
2023-05-11T17:25:37.797Z,22.88
2023-05-11T17:28:06.888Z,22.85
2023-05-11T17:30:47.238Z,22.69
2023-05-11T17:33:17.795Z,23.28
2023-05-11T17:35:47.102Z,23.02
2023-05-11T17:38:16.454Z,22.90
2023-05-11T17:40:45.581Z,22.70
2023-05-11T17:43:14.346Z,22.58
2023-05-11T17:45:43.297Z,22.82
2023-05-11T17:48:13.589Z,22.49
2023-05-11T17:50:43.635Z,22.24
2023-05-11T17:53:12.506Z,22.72
2023-05-11T17:55:42.541Z,22.80
2023-05-11T17:58:11.771Z,22.49
2023-05-11T18:00:41.798Z,22.97
2023-05-11T18:03:11.453Z,22.57
2023-05-11T18:05:48.526Z,22.31
2023-05-11T18:08:18.204Z,22.60
2023-05-11T18:10:47.112Z,22.41
2023-05-11T18:13:17.371Z,22.05
2023-05-11T18:15:46.846Z,22.88
2023-05-11T18:18:15.819Z,22.43
2023-05-11T18:20:47.656Z,22.57
2023-05-11T18:23:16.721Z,22.51
2023-05-11T18:25:45.486Z,22.53
2023-05-11T18:28:14.284Z,22.14
2023-05-11T18:30:43.132Z,22.14
2023-05-11T18:33:12.062Z,22.46
2023-05-11T18:35:42.255Z,22.28
2023-05-11T18:38:11.103Z,22.53
2023-05-11T18:40:39.942Z,22.16
2023-05-11T18:43:09.686Z,22.59
2023-05-11T18:45:41.450Z,22.63
2023-05-11T18:48:10.383Z,22.89
2023-05-11T18:50:40.126Z,22.39
2023-05-11T18:53:09.103Z,22.65
2023-05-11T18:55:52.066Z,23.01
2023-05-11T18:58:22.275Z,23.18
2023-05-11T19:00:53.049Z,22.75
2023-05-11T19:03:22.744Z,23.16
2023-05-11T19:05:52.034Z,22.70
2023-05-11T19:08:20.954Z,23.19
2023-05-11T19:10:50.047Z,23.20
2023-05-11T19:13:19.492Z,23.34
2023-05-11T19:15:48.373Z,23.66
2023-05-11T19:18:18.377Z,23.83
2023-05-11T19:20:47.787Z,23.31
2023-05-11T19:23:17.763Z,23.00
2023-05-11T19:25:46.737Z,23.59
2023-05-11T19:28:15.729Z,24.14
2023-05-11T19:30:44.566Z,24.20
2023-05-11T19:33:13.422Z,24.20
2023-05-11T19:35:42.214Z,23.55
2023-05-11T19:38:11.300Z,23.93
2023-05-11T19:40:46.282Z,23.64
2023-05-11T19:43:15.572Z,23.97
2023-05-11T19:45:45.817Z,23.84
2023-05-11T19:48:15.335Z,24.01
2023-05-11T19:50:44.854Z,23.76
2023-05-11T19:53:13.697Z,24.20
2023-05-11T19:55:42.795Z,24.27
2023-05-11T19:58:11.663Z,24.36
2023-05-11T20:00:44.634Z,24.04
2023-05-11T20:03:13.938Z,24.37
2023-05-11T20:05:43.623Z,24.72
2023-05-11T20:08:12.672Z,23.88
2023-05-11T20:10:41.451Z,24.44
2023-05-11T20:13:10.247Z,24.03
2023-05-11T20:15:39.243Z,24.36
2023-05-11T20:18:08.825Z,24.45
2023-05-11T20:20:38.979Z,24.52
2023-05-11T20:23:07.772Z,25.22
2023-05-11T20:25:38.966Z,24.98
2023-05-11T20:28:07.709Z,24.67
2023-05-11T20:30:37.412Z,24.97
2023-05-11T20:35:38.258Z,25.20
2023-05-11T20:38:07.413Z,24.70
2023-05-11T20:40:37.031Z,24.88
2023-05-11T20:43:05.852Z,25.15
2023-05-11T20:45:34.828Z,24.79
2023-05-11T20:48:03.806Z,24.27
2023-05-11T20:50:32.746Z,25.02
2023-05-11T20:53:01.639Z,24.83
2023-05-11T20:55:30.482Z,25.13
2023-05-11T20:57:59.360Z,24.85
2023-05-11T21:00:29.100Z,24.75
2023-05-11T21:02:58.368Z,24.87
2023-05-11T21:05:27.290Z,24.60
2023-05-11T21:07:56.461Z,25.09
2023-05-11T21:10:25.426Z,25.18
2023-05-11T21:12:54.458Z,25.42
2023-05-11T21:15:23.230Z,25.29
2023-05-11T21:17:52.200Z,25.38
2023-05-11T21:20:21.282Z,25.11
2023-05-11T21:22:50.214Z,24.93
2023-05-11T21:25:19.115Z,25.31
2023-05-11T21:27:49.206Z,24.79
2023-05-11T21:30:18.269Z,25.10
2023-05-11T21:32:47.333Z,25.41
2023-05-11T21:35:17.274Z,24.99
2023-05-11T21:37:50.101Z,25.11
2023-05-11T21:40:19.332Z,25.33
2023-05-11T21:42:48.753Z,25.22
2023-05-11T21:45:20.371Z,25.18
2023-05-11T21:47:49.212Z,25.51
2023-05-11T21:50:18.394Z,25.31
2023-05-11T21:52:47.772Z,25.22
2023-05-11T21:55:16.569Z,25.71
2023-05-11T21:57:46.445Z,25.61
2023-05-11T22:00:19.031Z,25.54
2023-05-11T22:02:48.302Z,25.24
2023-05-11T22:05:17.740Z,25.62
2023-05-11T22:07:46.503Z,25.14
2023-05-11T22:10:15.430Z,26.17
2023-05-11T22:12:44.436Z,25.27
2023-05-11T22:15:13.464Z,26.02
2023-05-11T22:17:42.417Z,25.92
2023-05-11T22:20:11.520Z,25.95
2023-05-11T22:22:40.283Z,26.19
2023-05-11T22:25:09.807Z,25.94
2023-05-11T22:27:38.673Z,25.76
2023-05-11T22:30:09.811Z,25.98
2023-05-11T22:32:38.657Z,26.21
2023-05-11T22:35:08.121Z,26.06
2023-05-11T22:37:37.068Z,25.94
2023-05-11T22:40:06.432Z,25.63
2023-05-11T22:42:35.409Z,25.76
2023-05-11T22:45:04.443Z,25.92
2023-05-11T22:47:34.320Z,26.26
2023-05-11T22:50:03.315Z,25.90
2023-05-11T22:52:34.174Z,26.17
2023-05-11T22:55:03.185Z,26.29
2023-05-11T22:57:33.792Z,26.17
2023-05-11T23:00:02.622Z,25.98
2023-05-11T23:02:36.613Z,26.91
2023-05-11T23:05:06.262Z,26.83
2023-05-11T23:07:35.181Z,26.67
2023-05-11T23:10:04.086Z,26.59
2023-05-11T23:12:34.941Z,26.75
2023-05-11T23:15:04.405Z,26.73
2023-05-11T23:17:41.046Z,26.83
2023-05-11T23:20:10.792Z,27.01
2023-05-11T23:22:41.527Z,26.51
2023-05-11T23:25:11.177Z,26.69
2023-05-11T23:27:39.935Z,26.26
2023-05-11T23:30:10.714Z,27.02
2023-05-11T23:32:39.549Z,26.52
2023-05-11T23:35:08.694Z,26.70
2023-05-11T23:37:37.639Z,26.96
2023-05-11T23:40:09.129Z,26.43
2023-05-11T23:42:41.179Z,26.92
2023-05-11T23:45:11.859Z,27.01
2023-05-11T23:47:40.738Z,26.72
2023-05-11T23:50:10.171Z,26.46
2023-05-11T23:52:38.954Z,27.42
2023-05-11T23:55:08.952Z,27.15
2023-05-11T23:57:37.980Z,27.34
